createdAt,value
2023-06-10T00:00:02.434Z,100.00
2023-06-10T00:02:40.811Z,100.00
2023-06-10T00:05:10.095Z,100.00
2023-06-10T00:07:39.165Z,100.00
2023-06-10T00:10:07.697Z,100.00
2023-06-10T00:12:38.320Z,100.00
2023-06-10T00:15:07.185Z,100.00
2023-06-10T00:17:35.051Z,100.00
2023-06-10T00:20:06.127Z,100.00
2023-06-10T00:22:33.594Z,100.00
2023-06-10T00:25:00.994Z,100.00
2023-06-10T00:27:32.517Z,100.00
2023-06-10T00:30:02.187Z,100.00
2023-06-10T00:32:30.125Z,100.00
2023-06-10T00:34:57.441Z,100.00
2023-06-10T00:37:25.306Z,100.00
2023-06-10T00:39:53.141Z,100.00
2023-06-10T00:42:25.132Z,100.00
2023-06-10T00:44:52.853Z,100.00
2023-06-10T00:47:23.736Z,99.14
2023-06-10T00:49:52.109Z,98.50
2023-06-10T00:52:23.860Z,98.04
2023-06-10T00:54:51.397Z,98.58
2023-06-10T00:57:18.875Z,98.60
2023-06-10T00:59:49.629Z,98.81
2023-06-10T01:02:17.851Z,98.51
2023-06-10T01:04:45.332Z,98.61
2023-06-10T01:07:32.671Z,98.77
2023-06-10T01:10:42.110Z,99.49
2023-06-10T01:13:15.752Z,100.00
2023-06-10T01:15:43.966Z,99.63
2023-06-10T01:18:16.557Z,99.84
2023-06-10T01:20:45.241Z,98.94
2023-06-10T01:23:12.963Z,99.51
2023-06-10T01:25:45.502Z,99.60
2023-06-10T01:28:15.718Z,100.00
2023-06-10T01:31:09.313Z,100.00
2023-06-10T01:33:41.615Z,100.00
2023-06-10T01:36:09.749Z,100.00
2023-06-10T01:38:43.598Z,100.00
2023-06-10T01:41:13.559Z,100.00
2023-06-10T01:43:43.774Z,100.00
2023-06-10T01:46:12.012Z,100.00
2023-06-10T01:48:39.730Z,100.00
2023-06-10T01:51:07.439Z,100.00
2023-06-10T01:53:37.195Z,100.00
2023-06-10T01:56:06.397Z,100.00
2023-06-10T01:58:33.699Z,100.00
2023-06-10T02:01:01.115Z,100.00
2023-06-10T02:03:28.670Z,100.00
2023-06-10T02:05:57.002Z,100.00
2023-06-10T02:08:24.344Z,100.00
2023-06-10T02:10:51.709Z,100.00
2023-06-10T02:13:19.241Z,100.00
2023-06-10T02:15:47.159Z,100.00
2023-06-10T02:18:14.637Z,100.00
2023-06-10T02:20:42.130Z,100.00
2023-06-10T02:23:09.375Z,100.00
2023-06-10T02:25:37.498Z,100.00
2023-06-10T02:28:04.984Z,100.00
2023-06-10T02:30:32.692Z,100.00
2023-06-10T02:33:00.418Z,100.00
2023-06-10T02:35:28.630Z,100.00
2023-06-10T02:37:56.689Z,100.00
2023-06-10T02:40:24.284Z,100.00
2023-06-10T02:42:51.531Z,100.00
2023-06-10T02:45:18.845Z,100.00
2023-06-10T02:47:46.805Z,100.00
2023-06-10T02:50:14.700Z,100.00
2023-06-10T02:52:58.224Z,100.00
2023-06-10T02:55:27.734Z,100.00
2023-06-10T02:58:01.717Z,100.00
2023-06-10T03:00:30.736Z,100.00
2023-06-10T03:02:58.884Z,100.00
2023-06-10T03:05:32.316Z,100.00
2023-06-10T03:08:02.950Z,100.00
2023-06-10T03:10:34.112Z,100.00
2023-06-10T03:13:02.515Z,100.00
2023-06-10T03:15:34.059Z,100.00
2023-06-10T03:18:06.281Z,100.00
2023-06-10T03:20:38.781Z,100.00
2023-06-10T03:23:08.324Z,100.00
2023-06-10T03:25:36.360Z,100.00
2023-06-10T03:28:04.676Z,100.00
2023-06-10T03:30:32.885Z,100.00
2023-06-10T03:33:00.843Z,100.00
2023-06-10T03:35:31.043Z,100.00
2023-06-10T03:37:58.811Z,100.00
2023-06-10T03:40:26.079Z,98.29
2023-06-10T03:42:53.424Z,97.96
2023-06-10T03:45:21.510Z,98.33
2023-06-10T03:47:49.626Z,97.87
2023-06-10T03:50:20.465Z,98.12
2023-06-10T03:52:48.448Z,99.17
2023-06-10T03:55:17.888Z,97.90
2023-06-10T03:57:47.899Z,98.69
2023-06-10T04:00:16.563Z,99.32
2023-06-10T04:02:49.081Z,97.45
2023-06-10T04:05:31.483Z,98.29
2023-06-10T04:07:59.268Z,98.03
2023-06-10T04:10:26.886Z,96.87
2023-06-10T04:12:55.369Z,96.13
2023-06-10T04:15:25.010Z,96.22
2023-06-10T04:17:52.458Z,95.93
2023-06-10T04:20:23.305Z,95.52
2023-06-10T04:22:51.205Z,95.14
2023-06-10T04:25:18.647Z,95.69
2023-06-10T04:27:45.914Z,95.12
2023-06-10T04:30:14.149Z,95.38
2023-06-10T04:32:42.231Z,95.20
2023-06-10T04:35:16.323Z,94.22
2023-06-10T04:37:44.076Z,93.86
2023-06-10T04:40:12.278Z,94.49
2023-06-10T04:42:39.935Z,93.62
2023-06-10T04:45:09.682Z,92.24
2023-06-10T04:47:38.322Z,92.27
2023-06-10T04:50:07.127Z,93.38
2023-06-10T04:52:35.222Z,93.24
2023-06-10T04:55:03.190Z,93.20
2023-06-10T04:57:30.726Z,92.97
2023-06-10T05:00:01.348Z,92.00
2023-06-10T05:02:28.871Z,91.16
2023-06-10T05:04:57.724Z,89.97
2023-06-10T05:07:25.239Z,89.78
2023-06-10T05:09:52.652Z,89.22
2023-06-10T05:12:19.948Z,88.47
2023-06-10T05:14:47.396Z,89.55
2023-06-10T05:17:14.951Z,89.43
2023-06-10T05:19:44.328Z,88.17
2023-06-10T05:22:12.243Z,88.38
2023-06-10T05:24:41.288Z,87.92
2023-06-10T05:27:08.584Z,88.22
2023-06-10T05:29:35.999Z,87.99
2023-06-10T05:32:04.632Z,87.90
2023-06-10T05:34:32.239Z,88.52
2023-06-10T05:36:59.652Z,88.53
2023-06-10T05:39:27.321Z,89.88
2023-06-10T05:41:54.686Z,89.93
2023-06-10T05:44:22.204Z,91.12
2023-06-10T05:46:49.462Z,89.95
2023-06-10T05:49:16.704Z,89.53
2023-06-10T05:51:44.137Z,89.38
2023-06-10T05:54:12.246Z,88.99
2023-06-10T05:56:39.725Z,89.66
2023-06-10T05:59:07.473Z,90.92
2023-06-10T06:01:35.360Z,90.77
2023-06-10T06:04:02.805Z,91.37
2023-06-10T06:06:30.229Z,91.70
2023-06-10T06:08:57.684Z,91.52
2023-06-10T06:11:26.930Z,88.83
2023-06-10T06:13:55.359Z,87.30
2023-06-10T06:16:22.690Z,86.43
2023-06-10T06:18:50.068Z,86.25
2023-06-10T06:21:17.351Z,83.76
2023-06-10T06:23:45.840Z,84.27
2023-06-10T06:26:13.168Z,84.08
2023-06-10T06:28:41.100Z,84.61
2023-06-10T06:31:08.556Z,84.64
2023-06-10T06:33:36.117Z,86.55
2023-06-10T06:36:04.448Z,82.96
2023-06-10T06:38:31.926Z,79.89
2023-06-10T06:41:04.310Z,79.22
2023-06-10T06:43:31.763Z,79.28
2023-06-10T06:46:17.582Z,77.79
2023-06-10T06:48:45.603Z,76.33
2023-06-10T06:51:13.404Z,75.08
2023-06-10T06:53:45.524Z,71.43
2023-06-10T06:56:14.119Z,70.06
2023-06-10T06:58:42.640Z,67.86
2023-06-10T07:01:09.957Z,68.79
2023-06-10T07:03:40.242Z,64.74
2023-06-10T07:06:11.080Z,65.48
2023-06-10T07:08:40.118Z,66.08
2023-06-10T07:11:07.416Z,66.59
2023-06-10T07:13:35.226Z,67.67
2023-06-10T07:16:02.930Z,66.90
2023-06-10T07:18:30.791Z,61.61
2023-06-10T07:20:58.251Z,60.59
2023-06-10T07:23:25.912Z,61.36
2023-06-10T07:25:53.259Z,63.37
2023-06-10T07:28:20.547Z,62.61
2023-06-10T07:30:48.256Z,62.96
2023-06-10T07:33:15.813Z,62.95
2023-06-10T07:35:44.355Z,60.29
2023-06-10T07:38:12.467Z,60.17
2023-06-10T07:40:40.036Z,59.33
2023-06-10T07:43:07.410Z,58.80
2023-06-10T07:45:35.174Z,59.28
2023-06-10T07:48:02.469Z,58.54
2023-06-10T07:50:29.880Z,54.11
2023-06-10T07:52:57.201Z,55.55
2023-06-10T07:55:27.064Z,56.47
2023-06-10T07:57:55.162Z,56.53
2023-06-10T08:00:23.171Z,55.59
2023-06-10T08:02:51.848Z,51.14
2023-06-10T08:05:19.592Z,49.57
2023-06-10T08:07:47.097Z,49.25
2023-06-10T08:10:15.014Z,49.82
2023-06-10T08:12:42.396Z,49.05
2023-06-10T08:15:10.592Z,49.20
2023-06-10T08:17:39.634Z,47.54
2023-06-10T08:20:08.118Z,46.80
2023-06-10T08:22:36.001Z,45.87
2023-06-10T08:25:03.734Z,45.55
2023-06-10T08:27:31.368Z,43.56
2023-06-10T08:30:00.609Z,42.66
2023-06-10T08:32:28.202Z,43.35
2023-06-10T08:34:56.942Z,41.93
2023-06-10T08:37:25.216Z,41.25
2023-06-10T08:39:52.559Z,41.78
2023-06-10T08:42:29.341Z,41.03
2023-06-10T08:44:57.536Z,42.94
2023-06-10T08:47:26.484Z,43.41
2023-06-10T08:49:57.588Z,42.77
2023-06-10T08:52:28.943Z,41.86
2023-06-10T08:55:05.776Z,40.45
2023-06-10T08:57:33.467Z,41.03
2023-06-10T09:00:01.231Z,40.65
2023-06-10T09:02:28.794Z,40.85
2023-06-10T09:04:58.942Z,40.53
2023-06-10T09:07:27.122Z,39.45
2023-06-10T09:09:55.991Z,39.19
2023-06-10T09:12:23.358Z,39.17
2023-06-10T09:14:51.009Z,38.36
2023-06-10T09:17:19.024Z,37.93
2023-06-10T09:19:48.511Z,37.97
2023-06-10T09:22:16.569Z,38.62
2023-06-10T09:24:43.895Z,38.15
2023-06-10T09:27:11.444Z,36.97
2023-06-10T09:29:55.812Z,37.29
2023-06-10T09:32:23.290Z,37.05
2023-06-10T09:34:54.250Z,35.33
2023-06-10T09:37:23.168Z,35.73
2023-06-10T09:40:11.617Z,35.54
2023-06-10T09:42:40.533Z,33.49
2023-06-10T09:45:08.698Z,32.82
2023-06-10T09:47:36.506Z,34.64
2023-06-10T09:50:04.841Z,31.73
2023-06-10T09:52:32.382Z,32.46
2023-06-10T09:55:03.789Z,34.17
2023-06-10T09:57:35.226Z,35.04
2023-06-10T10:00:23.248Z,34.68
2023-06-10T10:02:52.959Z,34.11
2023-06-10T10:05:23.156Z,33.07
2023-06-10T10:07:51.411Z,33.01
2023-06-10T10:10:21.284Z,35.03
2023-06-10T10:12:52.168Z,34.33
2023-06-10T10:15:21.088Z,34.53
2023-06-10T10:17:59.603Z,34.84
2023-06-10T10:20:31.106Z,33.68
2023-06-10T10:23:00.495Z,33.73
2023-06-10T10:25:29.669Z,33.32
2023-06-10T10:28:09.652Z,33.47
2023-06-10T10:30:58.610Z,33.82
2023-06-10T10:33:36.720Z,33.76
2023-06-10T10:36:05.396Z,33.75
2023-06-10T10:38:33.926Z,34.23
2023-06-10T10:41:02.276Z,34.18
2023-06-10T10:43:34.008Z,36.36
2023-06-10T10:46:02.761Z,36.94
2023-06-10T10:48:39.267Z,35.63
2023-06-10T10:51:06.683Z,35.70
2023-06-10T10:53:34.639Z,36.75
2023-06-10T10:56:16.432Z,34.87
2023-06-10T10:59:04.728Z,34.04
2023-06-10T11:01:43.628Z,34.15
2023-06-10T11:04:11.490Z,34.12
2023-06-10T11:06:39.585Z,34.34
2023-06-10T11:09:29.871Z,33.85
2023-06-10T11:12:01.150Z,33.50
2023-06-10T11:14:30.396Z,32.83
2023-06-10T11:16:59.412Z,32.40
2023-06-10T11:19:33.881Z,32.49
2023-06-10T11:22:03.224Z,32.87
2023-06-10T11:24:31.243Z,34.58
2023-06-10T11:27:18.600Z,33.91
2023-06-10T11:30:04.680Z,32.58
2023-06-10T11:32:35.944Z,32.92
2023-06-10T11:35:09.343Z,33.01
2023-06-10T11:37:37.592Z,32.28
2023-06-10T11:40:05.607Z,31.61
2023-06-10T11:42:46.160Z,31.90
2023-06-10T11:45:19.959Z,31.53
2023-06-10T11:48:00.662Z,32.81
2023-06-10T11:50:34.937Z,32.29
2023-06-10T11:53:02.334Z,32.20
2023-06-10T11:56:02.141Z,33.33
2023-06-10T11:58:29.998Z,32.82
2023-06-10T12:01:02.602Z,33.26
2023-06-10T12:03:41.195Z,32.73
2023-06-10T12:06:08.889Z,33.22
2023-06-10T12:08:43.990Z,32.13
2023-06-10T12:11:11.999Z,32.17
2023-06-10T12:13:49.700Z,32.70
2023-06-10T12:16:17.918Z,32.64
2023-06-10T12:18:47.084Z,33.01
2023-06-10T12:21:22.223Z,33.42
2023-06-10T12:24:02.622Z,33.93
2023-06-10T12:26:37.363Z,34.25
2023-06-10T12:29:22.157Z,34.35
2023-06-10T12:32:04.497Z,33.89
2023-06-10T12:34:41.621Z,33.61
2023-06-10T12:37:14.891Z,33.16
2023-06-10T12:39:43.912Z,33.64
2023-06-10T12:42:11.627Z,34.11
2023-06-10T12:44:42.511Z,34.12
2023-06-10T12:47:11.226Z,34.40
2023-06-10T12:49:38.519Z,34.16
2023-06-10T12:52:06.769Z,33.86
2023-06-10T12:54:35.683Z,34.69
2023-06-10T12:57:03.813Z,35.32
2023-06-10T12:59:33.000Z,35.72
2023-06-10T13:02:00.361Z,35.80
2023-06-10T13:04:28.164Z,35.71
2023-06-10T13:06:55.964Z,36.57
2023-06-10T13:09:23.785Z,36.81
2023-06-10T13:11:51.593Z,36.93
2023-06-10T13:14:18.957Z,36.88
2023-06-10T13:16:46.532Z,38.16
2023-06-10T13:19:14.089Z,37.68
2023-06-10T13:21:41.730Z,38.26
2023-06-10T13:24:09.037Z,38.17
2023-06-10T13:26:37.616Z,39.01
2023-06-10T13:29:05.381Z,38.79
2023-06-10T13:31:33.704Z,38.89
2023-06-10T13:34:01.102Z,38.92
2023-06-10T13:36:28.490Z,38.88
2023-06-10T13:38:56.997Z,39.01
2023-06-10T13:41:24.589Z,39.00
2023-06-10T13:43:52.022Z,39.35
2023-06-10T13:46:19.706Z,39.04
2023-06-10T13:48:47.117Z,39.41
2023-06-10T13:51:14.638Z,39.32
2023-06-10T13:53:42.029Z,40.30
2023-06-10T13:56:10.476Z,40.09
2023-06-10T13:58:40.177Z,40.10
2023-06-10T14:01:07.454Z,39.76
2023-06-10T14:03:37.751Z,40.44
2023-06-10T14:06:05.544Z,40.34
2023-06-10T14:08:34.365Z,41.02
2023-06-10T14:11:01.924Z,41.03
2023-06-10T14:13:29.602Z,41.54
2023-06-10T14:15:57.423Z,41.77
2023-06-10T14:18:24.831Z,41.89
2023-06-10T14:20:52.250Z,41.75
2023-06-10T14:23:20.148Z,41.79
2023-06-10T14:25:49.698Z,42.38
2023-06-10T14:28:17.399Z,42.55
2023-06-10T14:30:44.919Z,43.22
2023-06-10T14:33:12.511Z,43.69
2023-06-10T14:35:40.129Z,43.69
2023-06-10T14:38:08.399Z,44.36
2023-06-10T14:40:36.272Z,44.14
2023-06-10T14:43:11.041Z,43.91
2023-06-10T14:45:39.525Z,44.74
2023-06-10T14:48:08.455Z,45.17
2023-06-10T14:50:41.638Z,45.67
2023-06-10T14:53:08.997Z,45.47
2023-06-10T14:55:36.884Z,45.95
2023-06-10T14:58:04.165Z,45.94
2023-06-10T15:00:31.752Z,46.25
2023-06-10T15:02:59.177Z,46.74
2023-06-10T15:05:26.450Z,46.63
2023-06-10T15:07:53.791Z,47.62
2023-06-10T15:10:24.003Z,46.95
2023-06-10T15:12:57.031Z,48.04
2023-06-10T15:15:26.224Z,47.90
2023-06-10T15:17:54.859Z,47.99
2023-06-10T15:20:23.664Z,48.97
2023-06-10T15:22:51.077Z,48.29
2023-06-10T15:25:29.863Z,47.58
2023-06-10T15:27:59.177Z,49.03
2023-06-10T15:30:26.939Z,48.62
2023-06-10T15:32:54.720Z,48.48
2023-06-10T15:35:23.052Z,47.62
2023-06-10T15:37:50.690Z,47.48
2023-06-10T15:40:18.046Z,47.25
2023-06-10T15:42:45.554Z,47.29
2023-06-10T15:45:13.214Z,46.09
2023-06-10T15:47:42.793Z,46.51
2023-06-10T15:50:11.397Z,46.24
2023-06-10T15:52:39.668Z,46.32
2023-06-10T15:55:07.237Z,46.67
2023-06-10T15:57:35.114Z,46.25
2023-06-10T16:00:02.578Z,46.39
2023-06-10T16:02:34.282Z,46.77
2023-06-10T16:05:03.846Z,46.99
2023-06-10T16:07:31.516Z,46.72
2023-06-10T16:09:59.104Z,47.25
2023-06-10T16:12:26.814Z,47.41
2023-06-10T16:14:54.257Z,47.68
2023-06-10T16:17:22.258Z,47.68
2023-06-10T16:19:49.997Z,48.01
2023-06-10T16:22:17.324Z,48.08
2023-06-10T16:24:44.561Z,49.06
2023-06-10T16:27:12.030Z,49.37
2023-06-10T16:29:39.757Z,48.77
2023-06-10T16:32:07.601Z,49.01
2023-06-10T16:34:34.920Z,49.32
2023-06-10T16:37:03.095Z,49.22
2023-06-10T16:39:30.829Z,49.49
2023-06-10T16:41:58.120Z,50.07
2023-06-10T16:44:25.652Z,50.16
2023-06-10T16:46:52.988Z,48.76
2023-06-10T16:49:20.392Z,48.92
2023-06-10T16:51:48.026Z,47.73
2023-06-10T16:54:15.618Z,47.41
2023-06-10T16:56:42.879Z,47.23
2023-06-10T16:59:10.790Z,46.37
2023-06-10T17:01:38.436Z,45.90
2023-06-10T17:04:05.870Z,45.90
2023-06-10T17:06:33.387Z,45.30
2023-06-10T17:09:00.741Z,45.05
2023-06-10T17:11:28.329Z,44.64
2023-06-10T17:13:56.615Z,44.49
2023-06-10T17:16:24.073Z,44.59
2023-06-10T17:18:51.632Z,44.86
2023-06-10T17:21:18.929Z,45.22
2023-06-10T17:23:46.334Z,45.19
2023-06-10T17:26:13.748Z,46.19
2023-06-10T17:28:41.556Z,46.44
2023-06-10T17:31:08.888Z,46.51
2023-06-10T17:33:37.280Z,46.66
2023-06-10T17:36:05.315Z,47.77
2023-06-10T17:38:32.632Z,47.32
2023-06-10T17:41:02.444Z,47.82
2023-06-10T17:43:30.068Z,47.89
2023-06-10T17:45:59.097Z,47.43
2023-06-10T17:48:26.476Z,48.08
2023-06-10T17:50:53.952Z,48.27
2023-06-10T17:53:22.447Z,49.35
2023-06-10T17:55:49.772Z,50.23
2023-06-10T17:58:17.563Z,49.83
2023-06-10T18:00:45.085Z,50.72
2023-06-10T18:03:12.517Z,49.43
2023-06-10T18:05:39.952Z,49.50
2023-06-10T18:08:07.450Z,50.11
2023-06-10T18:10:38.012Z,52.61
2023-06-10T18:13:05.582Z,50.74
2023-06-10T18:15:35.248Z,50.96
2023-06-10T18:18:05.457Z,50.03
2023-06-10T18:20:32.847Z,49.01
2023-06-10T18:23:00.113Z,49.76
2023-06-10T18:25:27.511Z,48.63
2023-06-10T18:27:57.229Z,48.69
2023-06-10T18:30:25.741Z,49.29
2023-06-10T18:32:53.450Z,50.27
2023-06-10T18:35:22.520Z,51.65
2023-06-10T18:37:50.222Z,52.14
2023-06-10T18:40:19.128Z,51.72
2023-06-10T18:42:46.461Z,51.16
2023-06-10T18:45:14.215Z,51.01
2023-06-10T18:47:56.662Z,52.41
2023-06-10T18:50:25.031Z,51.26
2023-06-10T18:52:52.488Z,53.20
2023-06-10T18:55:20.347Z,52.24
2023-06-10T18:57:47.687Z,53.78
2023-06-10T19:00:15.692Z,56.26
2023-06-10T19:05:25.778Z,53.39
2023-06-10T19:07:53.503Z,52.25
2023-06-10T19:10:22.213Z,51.13
2023-06-10T19:12:49.650Z,51.98
2023-06-10T19:15:17.060Z,51.79
2023-06-10T19:17:45.306Z,51.62
2023-06-10T19:20:13.896Z,51.05
2023-06-10T19:22:41.667Z,50.90
2023-06-10T19:25:10.049Z,51.03
2023-06-10T19:27:37.685Z,51.88
2023-06-10T19:30:05.593Z,53.21
2023-06-10T19:32:33.657Z,53.10
2023-06-10T19:35:02.448Z,55.41
2023-06-10T19:37:30.353Z,52.41
2023-06-10T19:39:57.790Z,52.86
2023-06-10T19:42:25.169Z,52.83
2023-06-10T19:44:52.436Z,53.62
2023-06-10T19:47:19.913Z,53.95
2023-06-10T19:49:48.321Z,54.30
2023-06-10T19:52:18.263Z,54.20
2023-06-10T19:54:45.589Z,56.04
2023-06-10T19:57:14.348Z,57.30
2023-06-10T19:59:41.867Z,57.55
2023-06-10T20:02:09.390Z,58.08
2023-06-10T20:04:36.777Z,57.78
2023-06-10T20:07:04.187Z,58.76
2023-06-10T20:09:31.886Z,59.17
2023-06-10T20:12:01.268Z,60.07
2023-06-10T20:14:30.766Z,59.54
2023-06-10T20:17:00.290Z,60.27
2023-06-10T20:19:27.558Z,61.22
2023-06-10T20:21:54.833Z,61.60
2023-06-10T20:24:22.760Z,62.26
2023-06-10T20:26:50.419Z,61.74
2023-06-10T20:29:18.229Z,62.73
2023-06-10T20:31:46.839Z,63.42
2023-06-10T20:34:14.201Z,62.94
2023-06-10T20:36:41.767Z,64.26
2023-06-10T20:39:09.572Z,63.41
2023-06-10T20:41:37.360Z,61.77
2023-06-10T20:44:05.483Z,61.08
2023-06-10T20:46:33.463Z,60.10
2023-06-10T20:49:00.981Z,59.29
2023-06-10T20:51:28.660Z,60.22
2023-06-10T20:53:56.410Z,60.50
2023-06-10T20:56:23.868Z,61.12
2023-06-10T20:58:51.593Z,62.00
2023-06-10T21:01:19.019Z,63.28
2023-06-10T21:03:46.613Z,66.00
2023-06-10T21:06:16.126Z,67.55
2023-06-10T21:08:43.694Z,68.79
2023-06-10T21:11:11.107Z,70.78
2023-06-10T21:13:39.281Z,72.54
2023-06-10T21:16:06.883Z,74.55
2023-06-10T21:18:35.645Z,76.26
2023-06-10T21:21:03.125Z,78.39
2023-06-10T21:23:31.193Z,80.07
2023-06-10T21:26:00.895Z,81.98
2023-06-10T21:28:28.227Z,82.90
2023-06-10T21:30:55.705Z,84.78
2023-06-10T21:33:24.140Z,86.55
2023-06-10T21:35:51.627Z,88.17
2023-06-10T21:38:19.796Z,90.15
2023-06-10T21:40:47.298Z,91.25
2023-06-10T21:43:14.599Z,92.35
2023-06-10T21:45:41.829Z,93.14
2023-06-10T21:48:09.373Z,94.29
2023-06-10T21:50:36.919Z,95.05
2023-06-10T21:53:04.238Z,96.23
2023-06-10T21:55:32.071Z,97.33
2023-06-10T21:57:59.578Z,98.17
2023-06-10T22:00:27.055Z,98.60
2023-06-10T22:02:54.593Z,99.96
2023-06-10T22:05:21.949Z,100.00
2023-06-10T22:07:50.928Z,100.00
2023-06-10T22:10:18.335Z,100.00
2023-06-10T22:12:46.094Z,100.00
2023-06-10T22:15:14.526Z,100.00
2023-06-10T22:17:42.228Z,100.00
2023-06-10T22:20:10.058Z,100.00
2023-06-10T22:22:37.834Z,100.00
2023-06-10T22:25:05.690Z,100.00
2023-06-10T22:27:33.218Z,100.00
2023-06-10T22:30:01.985Z,100.00
2023-06-10T22:32:32.532Z,100.00
2023-06-10T22:35:00.128Z,100.00
2023-06-10T22:37:27.380Z,100.00
2023-06-10T22:39:54.777Z,100.00
2023-06-10T22:42:22.139Z,100.00
2023-06-10T22:44:49.565Z,100.00
2023-06-10T22:47:16.937Z,100.00
2023-06-10T22:49:44.615Z,100.00
2023-06-10T22:52:11.972Z,100.00
2023-06-10T22:54:41.444Z,100.00
2023-06-10T22:57:08.796Z,100.00
2023-06-10T22:59:36.201Z,100.00
2023-06-10T23:02:03.897Z,100.00
2023-06-10T23:04:31.454Z,100.00
2023-06-10T23:06:58.837Z,100.00
2023-06-10T23:09:26.156Z,100.00
2023-06-10T23:11:53.423Z,100.00
2023-06-10T23:14:20.982Z,100.00
2023-06-10T23:16:48.431Z,100.00
2023-06-10T23:19:19.430Z,100.00
2023-06-10T23:21:54.608Z,100.00
2023-06-10T23:24:28.454Z,100.00
2023-06-10T23:27:00.873Z,100.00
2023-06-10T23:29:29.118Z,100.00
2023-06-10T23:31:56.789Z,100.00
2023-06-10T23:34:24.597Z,100.00
2023-06-10T23:36:53.829Z,100.00
2023-06-10T23:39:22.120Z,100.00
2023-06-10T23:41:49.492Z,100.00
2023-06-10T23:44:16.898Z,100.00
2023-06-10T23:46:44.289Z,100.00
2023-06-10T23:49:11.935Z,100.00
2023-06-10T23:51:39.860Z,100.00
2023-06-10T23:54:07.249Z,100.00
2023-06-10T23:56:34.745Z,100.00
2023-06-10T23:59:02.034Z,100.00
